CPA718 WIII-VHHX
Flight info
| Callsign | CPA718 |
|---|---|
| Flight time | N/A |
| Altitude | 39000 |
| Route | AMBOY P648 BUTAX R223 BRU/N0481F400 L649 DAKIX/N0480F410 L649 LAXOR M772 DULOP M771 DUMOL |
| Aircraft | B772/H-SDE2E3FGHIJ5LORVWXY/LB1D1 |
Departure
| Time | 2026-04-30 21:49 |
|---|---|
| Airport | Soekarno-Hatta International Airport (WIII) |
Arrival
| Time | N/A |
|---|---|
| Airport | Hong Kong International Airport Kai Tak (VHHX) |
| Time | Latitude | Longitude | Altitude | Speed | Heading |
|---|---|---|---|---|---|
| 2026-04-30 20:40 | -6.12239 | 106.64906 | 42 ft | 0 kts | 144° |
| 2026-04-30 21:36 | -6.12236 | 106.64904 | 70 ft | 3 kts | 144° |
| 2026-04-30 21:37 | -6.12173 | 106.64881 | 40 ft | 4 kts | 225° |
| 2026-04-30 21:37 | -6.12168 | 106.64885 | 37 ft | 0 kts | 248° |
| 2026-04-30 21:40 | -6.12175 | 106.64869 | 43 ft | 3 kts | 248° |
| 2026-04-30 21:40 | -6.12184 | 106.64847 | 43 ft | 4 kts | 248° |
| 2026-04-30 21:41 | -6.12200 | 106.64808 | 43 ft | 6 kts | 248° |
| 2026-04-30 21:41 | -6.12204 | 106.64798 | 43 ft | 0 kts | 248° |
| 2026-04-30 21:41 | -6.12204 | 106.64797 | 43 ft | 1 kts | 248° |
| 2026-04-30 21:41 | -6.12206 | 106.64782 | 43 ft | 4 kts | 278° |
| 2026-04-30 21:42 | -6.12177 | 106.64743 | 43 ft | 10 kts | 324° |
| 2026-04-30 21:42 | -6.12092 | 106.64706 | 43 ft | 15 kts | 338° |
| 2026-04-30 21:42 | -6.11996 | 106.64687 | 43 ft | 14 kts | 21° |
| 2026-04-30 21:42 | -6.11953 | 106.64745 | 43 ft | 10 kts | 67° |
| 2026-04-30 21:43 | -6.11924 | 106.64812 | 43 ft | 10 kts | 67° |
| 2026-04-30 21:43 | -6.11897 | 106.64879 | 43 ft | 10 kts | 69° |
| 2026-04-30 21:43 | -6.11868 | 106.64955 | 42 ft | 13 kts | 69° |
| 2026-04-30 21:43 | -6.11831 | 106.65050 | 43 ft | 18 kts | 69° |
| 2026-04-30 21:44 | -6.11780 | 106.65178 | 43 ft | 22 kts | 68° |
| 2026-04-30 21:44 | -6.11717 | 106.65334 | 43 ft | 26 kts | 68° |
| 2026-04-30 21:44 | -6.11647 | 106.65509 | 43 ft | 28 kts | 69° |
| 2026-04-30 21:44 | -6.11575 | 106.65690 | 42 ft | 28 kts | 68° |
| 2026-04-30 21:45 | -6.11503 | 106.65871 | 42 ft | 28 kts | 68° |
| 2026-04-30 21:45 | -6.11430 | 106.66052 | 43 ft | 28 kts | 68° |
| 2026-04-30 21:45 | -6.11358 | 106.66233 | 43 ft | 28 kts | 68° |
| 2026-04-30 21:45 | -6.11286 | 106.66414 | 43 ft | 28 kts | 68° |
| 2026-04-30 21:46 | -6.11214 | 106.66595 | 43 ft | 28 kts | 68° |
| 2026-04-30 21:46 | -6.11143 | 106.66773 | 43 ft | 26 kts | 68° |
| 2026-04-30 21:46 | -6.11092 | 106.66903 | 43 ft | 17 kts | 68° |
| 2026-04-30 21:46 | -6.11049 | 106.66966 | 43 ft | 7 kts | 31° |
| 2026-04-30 21:47 | -6.11002 | 106.66971 | 43 ft | 7 kts | 351° |
| 2026-04-30 21:47 | -6.10966 | 106.66943 | 43 ft | 7 kts | 293° |
| 2026-04-30 21:47 | -6.10942 | 106.66901 | 43 ft | 7 kts | 309° |
| 2026-04-30 21:47 | -6.10918 | 106.66857 | 43 ft | 5 kts | 279° |
| 2026-04-30 21:48 | -6.10919 | 106.66846 | 43 ft | 5 kts | 263° |
| 2026-04-30 21:48 | -6.10947 | 106.66776 | 43 ft | 22 kts | 248° |
| 2026-04-30 21:48 | -6.11078 | 106.66451 | 44 ft | 86 kts | 248° |
| 2026-04-30 21:48 | -6.11386 | 106.65678 | 44 ft | 151 kts | 248° |
| 2026-04-30 21:49 | -6.11866 | 106.64600 | 451 ft | 170 kts | 246° |
| 2026-04-30 21:49 | -6.12282 | 106.63514 | 1258 ft | 171 kts | 251° |
| 2026-04-30 21:49 | -6.12248 | 106.62288 | 1450 ft | 189 kts | 291° |
| 2026-04-30 21:49 | -6.11739 | 106.60994 | 1647 ft | 213 kts | 289° |
| 2026-04-30 21:50 | -6.11242 | 106.59502 | 1867 ft | 237 kts | 287° |
| 2026-04-30 21:50 | -6.10727 | 106.57847 | 2127 ft | 259 kts | 286° |
| 2026-04-30 21:50 | -6.10202 | 106.56094 | 2793 ft | 263 kts | 286° |
| 2026-04-30 21:50 | -6.09683 | 106.54327 | 3523 ft | 266 kts | 286° |
| 2026-04-30 21:51 | -6.09154 | 106.52527 | 4194 ft | 269 kts | 288° |
| 2026-04-30 21:51 | -6.08221 | 106.50892 | 4708 ft | 276 kts | 316° |
| 2026-04-30 21:51 | -6.06566 | 106.49937 | 5426 ft | 277 kts | 346° |
| 2026-04-30 21:51 | -6.04649 | 106.49916 | 6112 ft | 280 kts | 15° |
| 2026-04-30 21:52 | -6.02829 | 106.50617 | 6594 ft | 283 kts | 26° |
| 2026-04-30 21:52 | -6.01275 | 106.51825 | 7057 ft | 288 kts | 55° |
| 2026-04-30 21:52 | -6.00512 | 106.53654 | 7738 ft | 283 kts | 79° |
| 2026-04-30 21:52 | -6.00206 | 106.55621 | 8234 ft | 289 kts | 82° |
| 2026-04-30 21:53 | -5.99931 | 106.57628 | 8851 ft | 291 kts | 83° |
| 2026-04-30 21:53 | -5.99662 | 106.59645 | 9525 ft | 291 kts | 83° |
| 2026-04-30 21:53 | -5.99396 | 106.61643 | 10088 ft | 295 kts | 83° |
| 2026-04-30 21:53 | -5.99116 | 106.63727 | 10397 ft | 311 kts | 83° |
| 2026-04-30 21:54 | -5.98812 | 106.65962 | 10555 ft | 334 kts | 83° |
| 2026-04-30 21:54 | -5.98484 | 106.68345 | 10764 ft | 354 kts | 83° |
| 2026-04-30 21:54 | -5.98139 | 106.70827 | 11379 ft | 363 kts | 82° |
| 2026-04-30 21:54 | -5.97785 | 106.73362 | 12106 ft | 369 kts | 82° |
| 2026-04-30 21:55 | -5.97426 | 106.75925 | 12885 ft | 374 kts | 82° |
| 2026-04-30 21:55 | -5.97061 | 106.78531 | 13717 ft | 378 kts | 82° |
| 2026-04-30 21:55 | -5.96693 | 106.81153 | 14451 ft | 381 kts | 82° |
| 2026-04-30 21:55 | -5.96318 | 106.83802 | 15193 ft | 385 kts | 81° |
| 2026-04-30 21:56 | -5.95779 | 106.86455 | 15939 ft | 390 kts | 76° |
| 2026-04-30 21:56 | -5.95093 | 106.89110 | 16720 ft | 394 kts | 75° |
| 2026-04-30 21:56 | -5.94393 | 106.91791 | 17513 ft | 399 kts | 76° |
| 2026-04-30 21:56 | -5.93714 | 106.94509 | 18285 ft | 403 kts | 76° |
| 2026-04-30 21:57 | -5.92985 | 106.97231 | 18893 ft | 404 kts | 69° |
| 2026-04-30 21:57 | -5.91540 | 106.99663 | 19424 ft | 412 kts | 49° |
| 2026-04-30 21:57 | -5.89355 | 107.01551 | 20087 ft | 418 kts | 32° |
| 2026-04-30 21:57 | -5.86717 | 107.02784 | 20779 ft | 419 kts | 21° |
| 2026-04-30 21:58 | -5.83947 | 107.03775 | 21404 ft | 425 kts | 20° |
| 2026-04-30 21:58 | -5.81170 | 107.04741 | 22058 ft | 430 kts | 20° |
| 2026-04-30 21:58 | -5.78343 | 107.05743 | 22758 ft | 433 kts | 21° |
| 2026-04-30 21:58 | -5.75495 | 107.06781 | 23455 ft | 437 kts | 21° |
| 2026-04-30 21:59 | -5.72635 | 107.07844 | 23993 ft | 440 kts | 21° |
| 2026-04-30 21:59 | -5.69792 | 107.08991 | 24450 ft | 440 kts | 29° |
| 2026-04-30 21:59 | -5.67339 | 107.10849 | 24788 ft | 446 kts | 47° |
| 2026-04-30 22:00 | -5.64295 | 107.16215 | 25825 ft | 446 kts | 71° |
| 2026-04-30 22:00 | -5.62345 | 107.22201 | 26666 ft | 455 kts | 72° |
| 2026-04-30 22:00 | -5.61374 | 107.25240 | 27124 ft | 458 kts | 72° |
| 2026-04-30 22:01 | -5.60384 | 107.28284 | 27605 ft | 461 kts | 72° |
| 2026-04-30 22:01 | -5.59371 | 107.31347 | 28037 ft | 464 kts | 71° |
| 2026-04-30 22:01 | -5.58340 | 107.34425 | 28431 ft | 467 kts | 71° |
| 2026-04-30 22:01 | -5.57292 | 107.37527 | 28827 ft | 470 kts | 71° |
| 2026-04-30 22:02 | -5.56237 | 107.40640 | 29211 ft | 473 kts | 71° |
| 2026-04-30 22:02 | -5.55175 | 107.43773 | 29580 ft | 476 kts | 71° |
| 2026-04-30 22:02 | -5.54104 | 107.46932 | 29950 ft | 478 kts | 71° |
| 2026-04-30 22:02 | -5.53032 | 107.50096 | 30246 ft | 481 kts | 71° |
| 2026-04-30 22:03 | -5.51954 | 107.53278 | 30531 ft | 483 kts | 71° |
| 2026-04-30 22:03 | -5.50885 | 107.56438 | 30818 ft | 484 kts | 71° |
| 2026-04-30 22:03 | -5.49799 | 107.59644 | 31078 ft | 486 kts | 71° |
| 2026-04-30 22:03 | -5.48706 | 107.62870 | 31314 ft | 488 kts | 71° |
| 2026-04-30 22:04 | -5.47611 | 107.66103 | 31546 ft | 490 kts | 72° |
| 2026-04-30 22:04 | -5.46515 | 107.69338 | 31775 ft | 491 kts | 72° |
| 2026-04-30 22:04 | -5.44533 | 107.74659 | 32163 ft | 490 kts | 62° |
| 2026-04-30 22:05 | -5.41643 | 107.78193 | 32417 ft | 495 kts | 41° |
| 2026-04-30 22:05 | -5.39807 | 107.79551 | 32625 ft | 496 kts | 33° |
| 2026-04-30 22:05 | -5.36693 | 107.81033 | 32935 ft | 495 kts | 19° |
| 2026-04-30 22:05 | -5.33373 | 107.81986 | 33108 ft | 498 kts | 17° |
| 2026-04-30 22:06 | -5.30018 | 107.82890 | 33301 ft | 499 kts | 17° |
| 2026-04-30 22:06 | -5.23320 | 107.84717 | 33933 ft | 497 kts | 17° |
| 2026-04-30 22:06 | -5.19994 | 107.85659 | 34209 ft | 496 kts | 18° |
| 2026-04-30 22:07 | -5.16677 | 107.86615 | 34463 ft | 496 kts | 18° |
| 2026-04-30 22:07 | -5.13369 | 107.87578 | 34719 ft | 495 kts | 18° |
| 2026-04-30 22:07 | -5.10060 | 107.88545 | 34987 ft | 494 kts | 18° |
| 2026-04-30 22:07 | -5.06761 | 107.89508 | 35266 ft | 493 kts | 18° |
| 2026-04-30 22:08 | -5.03467 | 107.90468 | 35560 ft | 493 kts | 18° |
| 2026-04-30 22:08 | -5.00173 | 107.91427 | 35845 ft | 492 kts | 18° |
| 2026-04-30 22:08 | -4.96884 | 107.92384 | 36137 ft | 491 kts | 18° |
| 2026-04-30 22:08 | -4.93607 | 107.93336 | 36443 ft | 490 kts | 18° |
| 2026-04-30 22:09 | -4.90341 | 107.94286 | 36749 ft | 489 kts | 18° |
| 2026-04-30 22:09 | -4.87119 | 107.95223 | 37021 ft | 488 kts | 18° |
| 2026-04-30 22:09 | -4.83823 | 107.96181 | 37311 ft | 487 kts | 18° |
| 2026-04-30 22:09 | -4.80610 | 107.97114 | 37597 ft | 486 kts | 18° |
| 2026-04-30 22:10 | -4.77363 | 107.98059 | 37882 ft | 485 kts | 18° |
| 2026-04-30 22:10 | -4.74124 | 107.99001 | 38166 ft | 484 kts | 18° |
| 2026-04-30 22:10 | -4.70889 | 107.99943 | 38433 ft | 483 kts | 18° |
| 2026-04-30 22:10 | -4.67666 | 108.00882 | 38683 ft | 482 kts | 18° |
| 2026-04-30 22:11 | -4.61204 | 108.02764 | 38843 ft | 485 kts | 18° |
| 2026-04-30 22:11 | -4.57967 | 108.03706 | 38887 ft | 484 kts | 18° |
| 2026-04-30 22:12 | -4.51533 | 108.05578 | 38876 ft | 480 kts | 18° |
| 2026-04-30 22:12 | -4.45126 | 108.07442 | 38889 ft | 478 kts | 18° |
| 2026-04-30 22:13 | -4.38777 | 108.09289 | 38890 ft | 478 kts | 18° |
| 2026-04-30 22:13 | -4.32391 | 108.11147 | 38883 ft | 478 kts | 18° |
| 2026-04-30 22:14 | -4.25991 | 108.13009 | 38886 ft | 479 kts | 18° |
| 2026-04-30 22:14 | -4.19589 | 108.14871 | 38893 ft | 479 kts | 18° |
| 2026-04-30 22:15 | -4.13240 | 108.16864 | 38878 ft | 477 kts | 27° |
| 2026-04-30 22:15 | -4.10454 | 108.18628 | 38899 ft | 471 kts | 39° |
| 2026-04-30 22:15 | -4.07891 | 108.20669 | 38893 ft | 472 kts | 40° |
| 2026-04-30 22:16 | -4.02789 | 108.24822 | 38898 ft | 473 kts | 40° |
| 2026-04-30 22:17 | -3.92448 | 108.33024 | 38894 ft | 475 kts | 39° |
| 2026-04-30 22:17 | -3.84626 | 108.39135 | 38896 ft | 475 kts | 39° |
| 2026-04-30 22:18 | -3.76844 | 108.45217 | 38893 ft | 474 kts | 39° |
| 2026-04-30 22:19 | -3.69067 | 108.51297 | 38887 ft | 472 kts | 39° |
| 2026-04-30 22:20 | -3.61312 | 108.57360 | 38897 ft | 471 kts | 39° |
| 2026-04-30 22:20 | -3.53572 | 108.63410 | 38892 ft | 470 kts | 39° |
| 2026-04-30 22:21 | -3.48419 | 108.67436 | 38900 ft | 470 kts | 39° |
| 2026-04-30 22:21 | -3.43261 | 108.71467 | 38897 ft | 470 kts | 39° |
| 2026-04-30 22:22 | -3.38106 | 108.75494 | 38898 ft | 470 kts | 39° |
| 2026-04-30 22:22 | -3.32946 | 108.79524 | 38904 ft | 471 kts | 39° |
| 2026-04-30 22:23 | -3.27785 | 108.83555 | 38903 ft | 471 kts | 39° |
| 2026-04-30 22:23 | -3.22615 | 108.87592 | 38887 ft | 471 kts | 39° |
| 2026-04-30 22:24 | -3.17440 | 108.91633 | 38895 ft | 471 kts | 39° |
| 2026-04-30 22:24 | -3.12273 | 108.95667 | 38895 ft | 471 kts | 39° |
| 2026-04-30 22:25 | -3.07102 | 108.99703 | 38896 ft | 471 kts | 39° |
| 2026-04-30 22:25 | -3.01929 | 109.03742 | 38891 ft | 471 kts | 39° |
| 2026-04-30 22:26 | -2.94204 | 109.09771 | 38903 ft | 471 kts | 39° |
| 2026-04-30 22:27 | -2.89037 | 109.13804 | 38902 ft | 471 kts | 39° |
| 2026-04-30 22:27 | -2.81379 | 109.19972 | 38897 ft | 471 kts | 40° |
| 2026-04-30 22:28 | -2.73762 | 109.26172 | 38896 ft | 471 kts | 40° |
| 2026-04-30 22:29 | -2.63567 | 109.34430 | 38901 ft | 471 kts | 40° |
| 2026-04-30 22:31 | -2.45748 | 109.48849 | 38900 ft | 472 kts | 40° |
| 2026-04-30 22:32 | -2.32953 | 109.59202 | 38900 ft | 473 kts | 40° |
| 2026-04-30 22:33 | -2.20154 | 109.69554 | 38897 ft | 474 kts | 40° |
| 2026-04-30 22:35 | -2.07337 | 109.79919 | 38897 ft | 474 kts | 40° |
| 2026-04-30 22:36 | -1.94510 | 109.90291 | 38898 ft | 474 kts | 40° |
| 2026-04-30 22:37 | -1.84275 | 109.98565 | 38909 ft | 475 kts | 40° |
| 2026-04-30 22:38 | -1.73987 | 110.06882 | 38904 ft | 476 kts | 40° |
| 2026-04-30 22:39 | -1.66232 | 110.13113 | 38903 ft | 477 kts | 39° |
| 2026-04-30 22:40 | -1.50290 | 110.25160 | 38919 ft | 480 kts | 38° |
| 2026-04-30 22:41 | -1.36969 | 110.35292 | 38919 ft | 482 kts | 38° |
| 2026-04-30 22:43 | -1.21067 | 110.47507 | 38912 ft | 481 kts | 39° |
| 2026-04-30 22:44 | -1.10520 | 110.55748 | 38919 ft | 481 kts | 39° |
| 2026-04-30 22:45 | -0.94692 | 110.68077 | 38927 ft | 480 kts | 39° |
| 2026-04-30 22:47 | -0.78875 | 110.80396 | 38926 ft | 480 kts | 39° |
| 2026-04-30 22:48 | -0.68362 | 110.88584 | 38939 ft | 480 kts | 39° |
| 2026-04-30 22:49 | -0.52547 | 111.00901 | 38937 ft | 480 kts | 39° |
| 2026-04-30 22:51 | -0.36768 | 111.13189 | 38941 ft | 479 kts | 39° |
| 2026-04-30 22:52 | -0.29771 | 111.18613 | 38939 ft | 478 kts | 39° |
| 2026-04-30 22:53 | -0.19272 | 111.26753 | 38935 ft | 477 kts | 39° |
| 2026-04-30 22:53 | -0.11403 | 111.32856 | 38931 ft | 477 kts | 39° |
| 2026-04-30 22:55 | 0.01642 | 111.42976 | 38942 ft | 473 kts | 39° |
| 2026-04-30 22:56 | 0.11945 | 111.50968 | 38927 ft | 469 kts | 39° |
| 2026-04-30 22:57 | 0.24861 | 111.60988 | 38921 ft | 471 kts | 39° |
| 2026-04-30 22:58 | 0.35230 | 111.69030 | 38918 ft | 472 kts | 39° |
| 2026-04-30 22:59 | 0.50773 | 111.81088 | 38921 ft | 471 kts | 39° |